createdAt,value
2022-11-06T00:06:49.994Z,97085.11
2022-11-06T00:16:53.921Z,97091.92
2022-11-06T00:26:58.004Z,97091.19
2022-11-06T00:37:02.593Z,97096.98
2022-11-06T00:47:06.779Z,97100.17
2022-11-06T00:57:10.617Z,97100.48
2022-11-06T01:07:14.616Z,97101.54
2022-11-06T01:17:18.188Z,97104.90
2022-11-06T01:27:26.743Z,97111.75
2022-11-06T01:37:31.241Z,97111.58
2022-11-06T01:47:35.000Z,97108.77
2022-11-06T01:57:39.890Z,97105.26
2022-11-06T02:07:44.369Z,97111.59
2022-11-06T02:18:09.143Z,97120.56
2022-11-06T02:28:24.452Z,97123.70
2022-11-06T02:38:43.568Z,97122.88
2022-11-06T02:49:03.109Z,97127.41
2022-11-06T02:59:12.879Z,97128.60
2022-11-06T03:09:21.099Z,97136.48
2022-11-06T03:19:54.628Z,97130.35
2022-11-06T03:30:05.589Z,97138.61
2022-11-06T03:40:15.020Z,97146.52
2022-11-06T03:50:33.357Z,97154.78
2022-11-06T04:00:41.113Z,97159.32
2022-11-06T04:11:07.185Z,97157.75
2022-11-06T04:21:26.300Z,97153.39
2022-11-06T04:31:42.788Z,97156.88
2022-11-06T04:41:50.642Z,97149.34
2022-11-06T04:51:54.587Z,97158.61
2022-11-06T05:01:58.202Z,97164.90
2022-11-06T05:12:02.239Z,97180.34
2022-11-06T05:22:24.928Z,97183.30
2022-11-06T05:32:31.051Z,97190.84
2022-11-06T05:42:38.667Z,97195.55
2022-11-06T05:52:42.280Z,97194.69
2022-11-06T06:02:46.157Z,97204.31
2022-11-06T06:12:50.944Z,97210.42
2022-11-06T06:22:59.368Z,97230.23
2022-11-06T06:33:07.277Z,97239.68
2022-11-06T06:43:11.059Z,97235.65
2022-11-06T06:53:15.213Z,97243.02
2022-11-06T07:03:18.995Z,97254.92
2022-11-06T07:13:22.855Z,97253.70
2022-11-06T07:23:26.730Z,97264.02
2022-11-06T07:33:30.997Z,97259.27
2022-11-06T07:43:36.106Z,97252.05
2022-11-06T07:53:40.172Z,97245.21
2022-11-06T08:03:44.556Z,97235.17
2022-11-06T08:13:48.423Z,97231.95
2022-11-06T08:23:52.187Z,97231.79
2022-11-06T08:33:55.964Z,97226.31
2022-11-06T08:43:59.835Z,97227.43
2022-11-06T08:54:05.276Z,97226.89
2022-11-06T09:04:09.820Z,97225.86
2022-11-06T09:14:13.709Z,97227.11
2022-11-06T09:24:27.389Z,97224.69
2022-11-06T09:34:42.019Z,97218.02
2022-11-06T09:44:46.173Z,97217.70
2022-11-06T09:54:58.041Z,97223.58
2022-11-06T10:05:26.378Z,97220.63
2022-11-06T10:15:46.065Z,97206.36
2022-11-06T10:26:19.460Z,97201.81
2022-11-06T10:36:30.871Z,97186.98
2022-11-06T10:46:40.178Z,97177.56
2022-11-06T10:57:09.222Z,97170.84
2022-11-06T11:07:21.301Z,97159.61
2022-11-06T11:17:25.869Z,97143.48
2022-11-06T11:27:38.738Z,97126.63
2022-11-06T11:37:43.359Z,97113.17
2022-11-06T11:47:50.298Z,97105.50
2022-11-06T11:57:59.464Z,97094.73
2022-11-06T12:08:05.468Z,97106.95
2022-11-06T12:18:20.692Z,97110.22
2022-11-06T12:28:25.900Z,97115.58
2022-11-06T12:39:16.851Z,97110.77
2022-11-06T12:49:47.697Z,97104.86
2022-11-06T13:00:02.044Z,97101.36
2022-11-06T13:10:10.217Z,97103.00
2022-11-06T13:20:27.695Z,97101.80
2022-11-06T13:30:32.535Z,97101.30
2022-11-06T13:40:43.528Z,97099.88
2022-11-06T13:51:17.907Z,97104.35
2022-11-06T14:01:35.938Z,97107.11
2022-11-06T14:11:43.851Z,97104.69
2022-11-06T14:21:51.906Z,97098.40
2022-11-06T14:32:07.043Z,97091.65
2022-11-06T14:42:11.813Z,97082.65
2022-11-06T14:52:17.593Z,97083.04
2022-11-06T15:02:27.000Z,97080.96
2022-11-06T15:13:07.423Z,97074.69
2022-11-06T15:23:22.563Z,97073.16
2022-11-06T15:33:43.200Z,97059.67
2022-11-06T15:43:50.893Z,97050.75
2022-11-06T15:53:56.097Z,97043.02
2022-11-06T16:04:15.758Z,97041.23
2022-11-06T16:14:23.558Z,97048.71
2022-11-06T16:24:59.920Z,97052.41
2022-11-06T16:35:33.131Z,97056.80
2022-11-06T16:45:57.458Z,97063.58
2022-11-06T16:56:11.438Z,97054.52
2022-11-06T17:06:25.830Z,97031.45
2022-11-06T17:16:31.459Z,97032.87
2022-11-06T17:26:41.678Z,97027.77
2022-11-06T17:36:46.360Z,97023.74
2022-11-06T17:46:51.733Z,97020.98
2022-11-06T17:56:59.339Z,97017.30
2022-11-06T18:07:04.422Z,97013.47
2022-11-06T18:17:11.697Z,97004.02
2022-11-06T18:27:17.457Z,96996.48
2022-11-06T18:37:30.073Z,96990.34
2022-11-06T18:47:34.442Z,96985.94
2022-11-06T18:57:41.796Z,96991.38
2022-11-06T19:07:51.904Z,96986.28
2022-11-06T19:18:00.963Z,96980.24
2022-11-06T19:28:06.080Z,96976.16
2022-11-06T19:38:12.221Z,96970.53
2022-11-06T19:48:18.957Z,96964.04
2022-11-06T19:58:23.734Z,96965.82
2022-11-06T20:08:29.878Z,96961.02
2022-11-06T20:18:39.276Z,96964.70
2022-11-06T20:28:47.837Z,96961.46
2022-11-06T20:38:58.255Z,96945.05
2022-11-06T20:49:07.316Z,96945.47
2022-11-06T20:59:12.783Z,96948.48
2022-11-06T21:09:18.699Z,96956.90
2022-11-06T21:19:27.643Z,96961.84
2022-11-06T21:29:32.242Z,96959.77
2022-11-06T21:39:37.001Z,96960.98
2022-11-06T21:49:40.721Z,96957.67
2022-11-06T21:59:45.609Z,96962.20
2022-11-06T22:09:50.168Z,96950.20
2022-11-06T22:19:54.350Z,96947.26
2022-11-06T22:29:58.438Z,96943.80
2022-11-06T22:40:02.098Z,96941.58
2022-11-06T22:50:06.467Z,96944.52
2022-11-06T23:00:11.510Z,96931.41
2022-11-06T23:10:15.141Z,96921.77
2022-11-06T23:20:21.464Z,96918.36
2022-11-06T23:30:25.124Z,96914.55
2022-11-06T23:40:29.088Z,96922.34
2022-11-06T23:50:32.980Z,96914.95
